Time;durP1;ratioP1;P1;durP2;ratioP2;P2;SDS_P1;SDS_P2;PMS_P1;PMS_P2;Temp;Humidity;BMP_temperature;BMP_pressure;BME280_temperature;BME280_humidity;BME280_pressure;Samples;Min_cycle;Max_cycle;Signal;HPM_P1;HPM_P2
2023/07/01 00:01:24;;;;;;;7.60;2.55;;;17.60;96.60;;;;;;4966301;28;20086;-54
2023/07/01 00:03:49;;;;;;;6.57;2.60;;;17.60;96.60;;;;;;4966330;28;20545;-58
2023/07/01 00:06:15;;;;;;;7.97;2.55;;;17.70;96.20;;;;;;4966054;28;20139;-52
2023/07/01 00:08:41;;;;;;;8.15;2.30;;;17.60;96.30;;;;;;4965589;28;20059;-57
2023/07/01 00:11:07;;;;;;;9.02;2.30;;;17.60;96.50;;;;;;4965567;28;20086;-46
2023/07/01 00:13:33;;;;;;;8.77;2.33;;;17.60;96.70;;;;;;4966160;28;20078;-52
2023/07/01 00:15:59;;;;;;;6.18;2.22;;;17.60;96.60;;;;;;4965962;28;20038;-50
2023/07/01 00:18:26;;;;;;;6.13;2.38;;;17.60;96.70;;;;;;4964962;28;20051;-55
2023/07/01 00:20:53;;;;;;;8.93;2.30;;;17.50;96.80;;;;;;4965828;28;20510;-58
2023/07/01 00:23:19;;;;;;;6.40;2.50;;;17.50;96.90;;;;;;4964111;28;20421;-55
2023/07/01 00:25:44;;;;;;;6.88;2.45;;;17.50;97.10;;;;;;4964677;28;20046;-57
2023/07/01 00:28:10;;;;;;;9.88;2.38;;;17.50;97.10;;;;;;4964317;28;20034;-57
2023/07/01 00:30:36;;;;;;;5.25;2.03;;;17.50;97.20;;;;;;4966000;28;20054;-58
2023/07/01 00:33:02;;;;;;;9.48;2.38;;;17.60;97.20;;;;;;4965087;28;20434;-48
2023/07/01 00:35:28;;;;;;;9.63;2.85;;;17.50;97.40;;;;;;4965991;28;20039;-53
2023/07/01 00:37:54;;;;;;;8.15;2.20;;;17.60;97.40;;;;;;4965640;28;20050;-51
2023/07/01 00:40:19;;;;;;;5.47;2.00;;;17.60;97.50;;;;;;4965110;28;20085;-49
2023/07/01 00:42:45;;;;;;;7.90;2.40;;;17.60;97.60;;;;;;4965059;28;20485;-54
2023/07/01 00:45:11;;;;;;;5.20;2.08;;;17.50;97.60;;;;;;4964596;28;20074;-55
2023/07/01 00:47:40;;;;;;;7.38;2.40;;;17.60;97.60;;;;;;4964845;28;20389;-47
2023/07/01 00:50:14;;;;;;;9.75;2.33;;;17.60;97.50;;;;;;4964872;28;20042;-59
2023/07/01 00:52:40;;;;;;;9.85;2.30;;;17.60;97.50;;;;;;4964047;28;20035;-59
2023/07/01 00:55:07;;;;;;;9.95;2.75;;;17.60;97.50;;;;;;4965710;28;20529;-57
2023/07/01 00:57:33;;;;;;;6.93;2.20;;;17.60;97.60;;;;;;4964149;28;20038;-54
2023/07/01 01:00:01;;;;;;;5.93;2.40;;;17.70;97.60;;;;;;4965652;28;20089;-59
2023/07/01 01:02:34;;;;;;;4.25;2.00;;;17.60;97.70;;;;;;4965239;28;20043;-60
2023/07/01 01:05:15;;;;;;;7.32;2.67;;;17.60;97.90;;;;;;4964434;28;20047;-57
2023/07/01 01:08:09;;;;;;;6.38;2.20;;;17.60;97.90;;;;;;4964120;28;20054;-56
2023/07/01 01:10:39;;;;;;;7.95;2.20;;;17.70;97.90;;;;;;4964216;28;20061;-47
2023/07/01 01:13:06;;;;;;;7.10;2.28;;;17.70;98.00;;;;;;4965573;28;20053;-48
2023/07/01 01:15:31;;;;;;;6.68;2.03;;;17.60;98.20;;;;;;4963091;28;20429;-51
2023/07/01 01:18:04;;;;;;;9.32;2.55;;;17.60;98.20;;;;;;4963867;28;20042;-54
2023/07/01 01:20:33;;;;;;;3.95;2.00;;;17.60;98.10;;;;;;4965147;28;20133;-48
2023/07/01 01:23:06;;;;;;;5.78;2.33;;;17.70;98.20;;;;;;4963882;28;20039;-56
2023/07/01 01:25:42;;;;;;;8.68;3.00;;;17.70;98.10;;;;;;4964743;28;20050;-54
2023/07/01 01:28:09;;;;;;;7.90;2.60;;;17.70;98.20;;;;;;4963795;28;20047;-51
2023/07/01 01:30:35;;;;;;;7.10;2.40;;;17.70;98.20;;;;;;4965247;28;20057;-52
2023/07/01 01:33:02;;;;;;;6.90;2.35;;;17.70;98.20;;;;;;4964914;28;20054;-56
2023/07/01 01:35:27;;;;;;;6.90;2.40;;;17.70;98.20;;;;;;4964302;28;20031;-59
2023/07/01 01:38:07;;;;;;;6.18;2.45;;;17.80;98.20;;;;;;4963789;28;20134;-59
2023/07/01 01:40:36;;;;;;;7.95;2.50;;;17.80;98.10;;;;;;4965132;28;20050;-59
2023/07/01 01:43:27;;;;;;;7.65;2.30;;;17.80;98.10;;;;;;4966639;28;20109;-53
2023/07/01 01:45:54;;;;;;;6.88;2.60;;;17.80;98.20;;;;;;4970177;28;20050;-52
2023/07/01 01:48:21;;;;;;;6.60;2.50;;;17.80;98.30;;;;;;4964400;28;20113;-46
2023/07/01 01:50:49;;;;;;;6.35;2.25;;;17.70;98.40;;;;;;4965037;28;20082;-59
2023/07/01 01:53:16;;;;;;;5.90;2.05;;;17.70;98.40;;;;;;4968734;28;20050;-55
2023/07/01 01:55:43;;;;;;;8.23;2.60;;;17.80;98.50;;;;;;4969937;28;20046;-57
2023/07/01 01:58:09;;;;;;;7.35;2.70;;;17.70;98.60;;;;;;4963526;28;20067;-56
2023/07/01 02:00:35;;;;;;;4.90;2.40;;;17.70;98.70;;;;;;4963806;28;20654;-59
2023/07/01 02:03:01;;;;;;;10.38;2.95;;;17.70;98.70;;;;;;4964676;28;20749;-55
2023/07/01 02:05:27;;;;;;;10.73;2.72;;;17.70;98.90;;;;;;4963874;28;20054;-50
2023/07/01 02:07:53;;;;;;;6.68;2.60;;;17.70;98.90;;;;;;4963744;28;20054;-49
2023/07/01 02:10:22;;;;;;;6.28;2.97;;;17.70;98.90;;;;;;4965936;28;20089;-55
2023/07/01 02:12:48;;;;;;;7.50;2.30;;;17.70;99.00;;;;;;4964213;28;20418;-52
2023/07/01 02:15:14;;;;;;;6.75;2.97;;;17.80;98.90;;;;;;4964487;28;20047;-60
2023/07/01 02:17:39;;;;;;;7.95;3.13;;;17.60;99.40;;;;;;4964780;28;20050;-55
2023/07/01 02:20:06;;;;;;;10.13;3.05;;;17.60;99.50;;;;;;4967684;28;20126;-59
2023/07/01 02:22:32;;;;;;;11.05;3.20;;;17.60;99.90;;;;;;4967368;28;20054;-55
2023/07/01 02:24:58;;;;;;;10.13;3.60;;;17.50;99.90;;;;;;4968544;28;20047;-51
2023/07/01 02:27:24;;;;;;;9.20;3.47;;;17.40;99.90;;;;;;4968186;28;20104;-48
2023/07/01 02:29:50;;;;;;;7.93;3.30;;;17.20;99.90;;;;;;4965836;28;20486;-51
2023/07/01 02:32:15;;;;;;;9.60;3.33;;;17.20;99.90;;;;;;4968012;28;20039;-58
2023/07/01 02:34:41;;;;;;;8.65;4.10;;;16.90;99.90;;;;;;4967919;28;20063;-55
2023/07/01 02:37:06;;;;;;;8.18;3.63;;;16.70;99.90;;;;;;4966571;28;20487;-53
2023/07/01 02:39:32;;;;;;;8.43;4.50;;;16.60;99.90;;;;;;4967174;28;20071;-57
2023/07/01 02:41:58;;;;;;;9.30;4.10;;;16.60;99.90;;;;;;4967221;28;20496;-54
2023/07/01 02:44:23;;;;;;;7.63;4.00;;;16.50;99.90;;;;;;4967910;28;20058;-49
2023/07/01 02:46:49;;;;;;;5.93;3.65;;;16.50;99.90;;;;;;4967376;28;20089;-46
2023/07/01 02:49:14;;;;;;;9.32;4.40;;;16.50;99.90;;;;;;4967329;28;20500;-52
2023/07/01 02:51:41;;;;;;;7.78;4.57;;;16.60;99.90;;;;;;4966845;28;20042;-59
2023/07/01 02:54:07;;;;;;;8.75;4.30;;;16.50;99.90;;;;;;4967447;28;20046;-58
2023/07/01 02:56:33;;;;;;;6.40;3.97;;;16.50;99.90;;;;;;4966843;28;20045;-57
2023/07/01 02:58:58;;;;;;;9.38;4.03;;;16.70;99.90;;;;;;4967044;28;20051;-53
2023/07/01 03:01:24;;;;;;;7.72;3.63;;;16.80;99.90;;;;;;4967384;28;20045;-50
2023/07/01 03:03:51;;;;;;;8.90;4.00;;;16.80;99.90;;;;;;4965925;28;20042;-52
2023/07/01 03:06:17;;;;;;;7.03;3.80;;;16.80;99.90;;;;;;4966435;28;20062;-55
2023/07/01 03:08:43;;;;;;;8.73;3.80;;;16.80;99.90;;;;;;4966841;28;20050;-59
2023/07/01 03:11:08;;;;;;;7.63;4.10;;;16.70;99.90;;;;;;4966465;28;20041;-59
2023/07/01 03:13:37;;;;;;;10.38;3.97;;;16.70;99.90;;;;;;4966675;28;20043;-55
2023/07/01 03:16:03;;;;;;;9.07;4.10;;;16.70;99.90;;;;;;4966381;28;20097;-59
2023/07/01 03:18:30;;;;;;;11.38;4.30;;;16.70;99.90;;;;;;4967228;28;20142;-59
2023/07/01 03:20:57;;;;;;;13.80;4.18;;;16.60;99.90;;;;;;4966621;28;20126;-46
2023/07/01 03:23:23;;;;;;;9.13;4.40;;;16.70;99.90;;;;;;4966080;28;20049;-50
2023/07/01 03:25:49;;;;;;;10.40;3.78;;;16.70;99.90;;;;;;4967296;28;20038;-51
2023/07/01 03:28:14;;;;;;;6.85;3.63;;;16.70;99.90;;;;;;4966691;28;20053;-52
2023/07/01 03:30:40;;;;;;;9.43;3.67;;;16.70;99.90;;;;;;4966163;28;20043;-58
2023/07/01 03:33:06;;;;;;;6.80;3.22;;;16.70;99.90;;;;;;4966523;28;20122;-57
2023/07/01 03:35:32;;;;;;;6.72;3.55;;;16.80;99.90;;;;;;4966202;28;20082;-58
2023/07/01 03:37:57;;;;;;;8.70;3.15;;;16.80;99.90;;;;;;4965121;28;20070;-57
2023/07/01 03:40:23;;;;;;;9.93;3.47;;;16.80;99.90;;;;;;4965732;28;20520;-53
2023/07/01 03:42:48;;;;;;;8.25;3.40;;;16.90;99.90;;;;;;4964325;28;20055;-53
2023/07/01 03:45:14;;;;;;;8.98;3.65;;;16.80;99.90;;;;;;4966076;28;20430;-57
2023/07/01 03:47:44;;;;;;;5.60;3.30;;;16.80;99.90;;;;;;4965182;28;20074;-58
2023/07/01 03:50:11;;;;;;;7.78;3.42;;;16.90;99.90;;;;;;4965981;28;20055;-55
2023/07/01 03:52:37;;;;;;;6.32;3.42;;;16.90;99.90;;;;;;4965266;28;20042;-53
2023/07/01 03:55:05;;;;;;;5.38;3.08;;;16.90;99.90;;;;;;4965606;28;20047;-59
2023/07/01 03:57:31;;;;;;;6.53;3.33;;;17.00;99.90;;;;;;4966185;28;20433;-56
2023/07/01 03:59:56;;;;;;;9.07;3.50;;;16.90;99.90;;;;;;4966723;28;20627;-58
2023/07/01 04:02:22;;;;;;;6.95;3.30;;;16.90;99.90;;;;;;4966185;28;20094;-58
2023/07/01 04:04:48;;;;;;;7.65;3.33;;;16.90;99.90;;;;;;4965530;28;20082;-50
2023/07/01 04:07:14;;;;;;;7.50;3.60;;;16.80;99.90;;;;;;4966108;28;20666;-53
2023/07/01 04:09:39;;;;;;;7.30;3.10;;;16.80;99.90;;;;;;4965925;28;20449;-48
2023/07/01 04:12:05;;;;;;;7.03;3.20;;;16.70;99.90;;;;;;4965668;28;20670;-59
2023/07/01 04:14:31;;;;;;;7.05;3.38;;;16.80;99.90;;;;;;4965276;28;20059;-55
2023/07/01 04:16:57;;;;;;;9.18;3.40;;;16.80;99.90;;;;;;4966171;28;20050;-57
2023/07/01 04:19:23;;;;;;;7.22;3.53;;;16.70;99.90;;;;;;4965646;28;20038;-56
2023/07/01 04:21:48;;;;;;;8.93;4.32;;;16.60;99.90;;;;;;4965800;28;20717;-52
2023/07/01 04:24:14;;;;;;;5.63;3.30;;;16.60;99.90;;;;;;4966260;28;20047;-51
2023/07/01 04:26:41;;;;;;;6.28;3.55;;;16.50;99.90;;;;;;4966491;28;20189;-55
2023/07/01 04:29:07;;;;;;;6.55;3.55;;;16.50;99.90;;;;;;4965244;28;20053;-55
2023/07/01 04:31:33;;;;;;;7.47;4.15;;;16.30;99.90;;;;;;4965468;28;20043;-59
2023/07/01 04:33:59;;;;;;;5.93;3.80;;;16.30;99.90;;;;;;4965858;28;20057;-58
2023/07/01 04:36:24;;;;;;;8.77;4.03;;;16.40;99.90;;;;;;4963917;28;20058;-57
2023/07/01 04:38:50;;;;;;;8.32;4.00;;;16.30;99.90;;;;;;4965741;28;20055;-51
2023/07/01 04:41:15;;;;;;;9.00;3.97;;;16.30;99.90;;;;;;4965665;28;20035;-55
2023/07/01 04:43:41;;;;;;;10.95;3.92;;;16.20;99.90;;;;;;4963423;28;20046;-54
2023/07/01 04:46:07;;;;;;;6.70;4.05;;;16.30;99.90;;;;;;4964984;28;20074;-55
2023/07/01 04:48:33;;;;;;;6.22;4.28;;;16.20;99.90;;;;;;4964922;28;20038;-53
2023/07/01 04:50:58;;;;;;;8.30;4.18;;;16.20;99.90;;;;;;4965010;28;20083;-56
2023/07/01 04:53:24;;;;;;;8.38;3.65;;;16.20;99.90;;;;;;4964237;28;20061;-58
2023/07/01 04:55:50;;;;;;;6.32;3.85;;;16.20;99.90;;;;;;4964718;28;20046;-47
2023/07/01 04:58:15;;;;;;;7.72;3.92;;;16.30;99.90;;;;;;4964055;28;20066;-52
2023/07/01 05:00:42;;;;;;;9.70;4.07;;;16.20;99.90;;;;;;4964440;28;20490;-53
2023/07/01 05:03:07;;;;;;;8.07;3.78;;;16.20;99.90;;;;;;4964042;28;20086;-59
2023/07/01 05:05:33;;;;;;;7.60;4.10;;;16.10;99.90;;;;;;4964691;28;20087;-47
2023/07/01 05:07:58;;;;;;;9.13;4.65;;;16.10;99.90;;;;;;4963880;28;20446;-59
2023/07/01 05:10:24;;;;;;;6.85;3.92;;;16.10;99.90;;;;;;4962616;28;20793;-58
2023/07/01 05:12:50;;;;;;;8.02;3.90;;;16.20;99.90;;;;;;4963912;28;20796;-50
2023/07/01 05:15:16;;;;;;;7.68;3.85;;;16.10;99.90;;;;;;4963390;28;20043;-53
2023/07/01 05:17:42;;;;;;;9.50;4.22;;;16.10;99.90;;;;;;4964097;28;20508;-53
2023/07/01 05:20:09;;;;;;;7.90;3.85;;;16.20;99.90;;;;;;4963198;28;20047;-56
2023/07/01 05:22:35;;;;;;;7.80;4.10;;;16.10;99.90;;;;;;4964371;28;20121;-52
2023/07/01 05:25:01;;;;;;;7.00;3.75;;;16.00;99.90;;;;;;4965073;28;20535;-59
2023/07/01 05:27:27;;;;;;;8.30;4.05;;;16.00;99.90;;;;;;4964313;28;20105;-59
2023/07/01 05:29:53;;;;;;;7.60;4.60;;;16.10;99.90;;;;;;4963674;28;20710;-58
2023/07/01 05:32:18;;;;;;;5.43;3.60;;;16.10;99.90;;;;;;4964126;28;20039;-54
2023/07/01 05:34:44;;;;;;;6.05;4.10;;;16.00;99.90;;;;;;4965147;28;20043;-51
2023/07/01 05:37:10;;;;;;;7.03;4.10;;;16.00;99.90;;;;;;4963839;28;20062;-50
2023/07/01 05:39:36;;;;;;;9.25;4.82;;;16.00;99.90;;;;;;4964940;28;20109;-49
2023/07/01 05:42:02;;;;;;;7.82;3.90;;;16.00;99.90;;;;;;4964756;28;20071;-59
2023/07/01 05:44:27;;;;;;;7.72;4.00;;;16.00;99.90;;;;;;4963583;28;20090;-51
2023/07/01 05:46:53;;;;;;;6.88;4.43;;;16.00;99.90;;;;;;4965400;28;20403;-59
2023/07/01 05:49:19;;;;;;;7.57;4.90;;;16.00;99.90;;;;;;4964528;28;20051;-53
2023/07/01 05:51:45;;;;;;;6.45;4.35;;;16.00;99.90;;;;;;4974302;28;20095;-50
2023/07/01 05:54:11;;;;;;;10.40;4.78;;;15.90;99.90;;;;;;4968263;28;20125;-48
2023/07/01 05:56:37;;;;;;;9.57;3.90;;;16.00;99.90;;;;;;4968555;28;20155;-52
2023/07/01 05:59:03;;;;;;;7.50;4.63;;;16.10;99.90;;;;;;4968156;28;20158;-55
2023/07/01 06:01:29;;;;;;;8.15;4.00;;;16.10;99.90;;;;;;4968250;28;20491;-56
2023/07/01 06:03:55;;;;;;;7.40;4.55;;;16.10;99.90;;;;;;4968803;28;20047;-57
2023/07/01 06:06:21;;;;;;;7.88;4.25;;;16.10;99.90;;;;;;4967482;28;20130;-56
2023/07/01 06:08:47;;;;;;;9.63;4.70;;;16.10;99.90;;;;;;4968555;28;20078;-53
2023/07/01 06:11:13;;;;;;;8.20;4.20;;;16.20;99.90;;;;;;4968574;28;20123;-51
2023/07/01 06:13:47;;;;;;;7.70;4.28;;;16.20;99.90;;;;;;4968339;28;20051;-52
2023/07/01 06:16:13;;;;;;;8.35;4.60;;;16.30;99.90;;;;;;4966574;28;20061;-48
2023/07/01 06:18:39;;;;;;;6.78;3.78;;;16.20;99.90;;;;;;4967843;28;20050;-56
2023/07/01 06:21:06;;;;;;;6.03;4.00;;;16.30;99.90;;;;;;4965988;28;20061;-53
2023/07/01 06:23:38;;;;;;;7.63;4.13;;;16.40;99.90;;;;;;4967775;28;20108;-50
2023/07/01 06:26:05;;;;;;;6.78;4.38;;;16.40;99.90;;;;;;4966650;28;20046;-50
2023/07/01 06:28:31;;;;;;;5.38;3.88;;;16.40;99.90;;;;;;4967614;28;20097;-50
2023/07/01 06:30:56;;;;;;;7.40;4.40;;;16.50;99.90;;;;;;4967326;28;20074;-51
2023/07/01 06:33:22;;;;;;;7.35;3.95;;;16.40;99.90;;;;;;4968020;28;20054;-59
2023/07/01 06:35:48;;;;;;;6.38;4.32;;;16.50;99.90;;;;;;4967893;28;20043;-60
2023/07/01 06:38:13;;;;;;;6.43;4.28;;;16.50;99.90;;;;;;4968362;28;20047;-59
2023/07/01 06:40:39;;;;;;;8.98;4.40;;;16.40;99.90;;;;;;4966057;28;20054;-49
2023/07/01 06:43:05;;;;;;;11.07;4.60;;;16.50;99.90;;;;;;4967723;28;20042;-52
2023/07/01 06:45:31;;;;;;;6.72;4.38;;;16.60;99.90;;;;;;4966879;28;21079;-51
2023/07/01 06:47:58;;;;;;;10.38;4.60;;;16.60;99.90;;;;;;4966891;28;20422;-49
2023/07/01 06:50:24;;;;;;;7.32;4.55;;;16.50;99.90;;;;;;4967778;28;20046;-56
2023/07/01 06:52:50;;;;;;;8.70;4.57;;;16.60;99.90;;;;;;4967006;28;20061;-60
2023/07/01 06:55:16;;;;;;;8.52;4.80;;;16.50;99.90;;;;;;4967377;28;20042;-55
2023/07/01 06:57:42;;;;;;;12.35;5.05;;;16.60;99.90;;;;;;4966889;28;20038;-54
2023/07/01 07:00:09;;;;;;;9.13;5.15;;;16.60;99.90;;;;;;4968583;28;20042;-54
2023/07/01 07:02:35;;;;;;;7.60;5.07;;;16.60;99.90;;;;;;4967840;28;20054;-54
2023/07/01 07:05:03;;;;;;;7.22;5.07;;;16.40;99.90;;;;;;4966968;28;20058;-46
2023/07/01 07:07:29;;;;;;;8.07;5.60;;;16.40;99.90;;;;;;4965948;28;20054;-48
2023/07/01 07:09:54;;;;;;;10.25;5.93;;;16.50;99.90;;;;;;4967149;28;20084;-54
2023/07/01 07:12:20;;;;;;;9.77;6.20;;;16.40;99.90;;;;;;4967479;28;20122;-58
2023/07/01 07:14:46;;;;;;;12.30;5.93;;;16.30;99.90;;;;;;4967119;28;20146;-59
2023/07/01 07:17:11;;;;;;;7.93;5.63;;;16.30;99.90;;;;;;4966904;28;20429;-56
2023/07/01 07:19:37;;;;;;;9.52;6.07;;;16.30;99.90;;;;;;4967327;28;20047;-55
2023/07/01 07:22:04;;;;;;;8.35;6.47;;;16.20;99.90;;;;;;4966671;28;20070;-50
2023/07/01 07:24:29;;;;;;;9.50;6.05;;;16.20;99.90;;;;;;4965945;28;20051;-53
2023/07/01 07:26:57;;;;;;;8.13;5.93;;;16.20;99.90;;;;;;4967418;28;20503;-54
2023/07/01 07:29:27;;;;;;;9.65;6.63;;;16.30;99.90;;;;;;4966930;28;20386;-46
2023/07/01 07:31:52;;;;;;;9.48;5.93;;;16.30;99.90;;;;;;4965922;28;20042;-52
2023/07/01 07:34:18;;;;;;;8.48;5.95;;;16.40;99.90;;;;;;4967288;28;20485;-54
2023/07/01 07:36:44;;;;;;;8.82;6.95;;;16.40;99.90;;;;;;4975554;28;20041;-59
2023/07/01 07:39:12;;;;;;;8.70;5.93;;;16.40;99.90;;;;;;4969758;28;20054;-57
2023/07/01 07:41:39;;;;;;;8.88;5.90;;;16.40;99.90;;;;;;4966624;28;20057;-53
2023/07/01 07:44:05;;;;;;;6.55;5.85;;;16.40;99.90;;;;;;4966531;28;20105;-58
2023/07/01 07:46:30;;;;;;;8.15;6.10;;;16.40;99.90;;;;;;4967020;28;20054;-56
2023/07/01 07:48:56;;;;;;;6.97;6.00;;;16.50;99.90;;;;;;4976401;28;20042;-50
2023/07/01 07:51:22;;;;;;;8.27;5.30;;;16.50;99.90;;;;;;4975275;28;20578;-56
2023/07/01 07:53:47;;;;;;;7.45;5.75;;;16.60;99.90;;;;;;4971643;28;20038;-56
2023/07/01 07:56:13;;;;;;;7.43;5.88;;;16.60;99.90;;;;;;4963249;28;20053;-55
2023/07/01 07:58:38;;;;;;;6.25;5.50;;;16.60;99.90;;;;;;4963802;28;20035;-58
2023/07/01 08:01:04;;;;;;;7.55;5.63;;;16.60;99.90;;;;;;4963357;28;20069;-46
2023/07/01 08:03:29;;;;;;;7.65;5.60;;;16.60;99.90;;;;;;4963273;28;20674;-55
2023/07/01 08:05:55;;;;;;;6.90;5.97;;;16.60;99.90;;;;;;4961665;28;20171;-54
2023/07/01 08:08:21;;;;;;;7.25;6.28;;;16.60;99.90;;;;;;4963474;28;20378;-54
2023/07/01 08:10:46;;;;;;;7.43;5.57;;;16.60;99.90;;;;;;4963169;28;20085;-55
2023/07/01 08:13:13;;;;;;;6.45;5.28;;;16.70;99.90;;;;;;4962342;28;20039;-51
2023/07/01 08:15:41;;;;;;;8.77;5.47;;;16.60;99.90;;;;;;4963038;28;20043;-58
2023/07/01 08:18:06;;;;;;;6.70;5.13;;;16.70;99.90;;;;;;4962639;28;20457;-58
2023/07/01 08:20:32;;;;;;;7.18;6.00;;;16.70;99.90;;;;;;4960853;28;20087;-57
2023/07/01 08:22:58;;;;;;;7.15;5.95;;;16.70;99.90;;;;;;4962344;28;20042;-52
2023/07/01 08:25:23;;;;;;;6.10;5.05;;;16.70;99.90;;;;;;4962929;28;20413;-51
2023/07/01 08:27:49;;;;;;;6.43;5.43;;;16.80;99.90;;;;;;4961863;28;20038;-53
2023/07/01 08:30:15;;;;;;;7.65;5.22;;;16.80;99.90;;;;;;4962528;28;20556;-56
2023/07/01 08:32:41;;;;;;;7.10;5.45;;;16.90;99.90;;;;;;4970546;28;20497;-57
2023/07/01 08:35:08;;;;;;;6.80;5.32;;;16.90;99.90;;;;;;4981941;28;20083;-55
2023/07/01 08:37:34;;;;;;;6.57;5.85;;;16.90;99.90;;;;;;4979833;28;20073;-57
2023/07/01 08:39:59;;;;;;;6.78;5.05;;;16.80;99.90;;;;;;4981317;28;20358;-54
2023/07/01 08:42:43;;;;;;;6.63;5.93;;;17.00;99.90;;;;;;4975611;28;20465;-53
2023/07/01 08:45:09;;;;;;;6.15;5.38;;;17.00;99.90;;;;;;4961781;28;20042;-47
2023/07/01 08:47:35;;;;;;;7.30;6.25;;;17.00;99.90;;;;;;4961660;28;20397;-53
2023/07/01 08:50:05;;;;;;;6.97;6.22;;;17.00;99.90;;;;;;4962548;28;20046;-55
2023/07/01 08:52:38;;;;;;;8.13;6.03;;;17.10;99.90;;;;;;4961074;28;20042;-50
2023/07/01 08:55:04;;;;;;;6.82;5.95;;;17.10;99.90;;;;;;4962328;28;20046;-54
2023/07/01 08:57:30;;;;;;;6.68;5.80;;;17.20;99.90;;;;;;4962354;28;20437;-52
2023/07/01 08:59:57;;;;;;;7.28;6.22;;;17.20;99.90;;;;;;4962129;28;20117;-53
2023/07/01 09:02:24;;;;;;;11.68;6.43;;;17.20;99.90;;;;;;4962514;28;20422;-53
2023/07/01 09:04:50;;;;;;;7.00;6.03;;;17.10;99.90;;;;;;4961955;28;20051;-58
2023/07/01 09:07:15;;;;;;;8.25;6.15;;;17.20;99.90;;;;;;4961823;28;20129;-55
2023/07/01 09:09:43;;;;;;;8.88;6.22;;;17.30;99.90;;;;;;4961545;28;20047;-58
2023/07/01 09:12:10;;;;;;;8.95;5.75;;;17.30;99.90;;;;;;4962070;28;20125;-57
2023/07/01 09:15:02;;;;;;;7.97;6.18;;;17.30;99.90;;;;;;4967525;28;20085;-56
2023/07/01 09:17:32;;;;;;;6.78;5.80;;;17.20;99.90;;;;;;4972349;28;20042;-51
2023/07/01 09:19:59;;;;;;;7.03;5.90;;;17.30;99.90;;;;;;4970991;28;20156;-57
2023/07/01 09:22:25;;;;;;;7.72;5.78;;;17.30;99.90;;;;;;4980072;28;20046;-56
2023/07/01 09:24:51;;;;;;;7.07;5.75;;;17.30;99.90;;;;;;4980993;28;20046;-55
2023/07/01 09:27:17;;;;;;;7.18;6.38;;;17.30;99.90;;;;;;4981066;28;20053;-57
2023/07/01 09:29:42;;;;;;;7.75;6.18;;;17.30;99.90;;;;;;4980499;28;20125;-52
2023/07/01 09:32:08;;;;;;;8.32;6.30;;;17.30;99.90;;;;;;4980322;28;20046;-55
2023/07/01 09:34:58;;;;;;;6.78;6.07;;;17.30;99.90;;;;;;4978757;28;20121;-47
2023/07/01 09:37:28;;;;;;;7.47;6.68;;;17.40;99.90;;;;;;4979284;28;20121;-57
2023/07/01 09:39:54;;;;;;;8.32;7.47;;;17.40;99.90;;;;;;4980552;28;20120;-53
2023/07/01 09:42:19;;;;;;;7.70;6.97;;;17.40;99.90;;;;;;4980925;28;20296;-48
2023/07/01 09:45:08;;;;;;;9.05;7.35;;;17.40;99.90;;;;;;4980828;28;20046;-52
2023/07/01 09:47:34;;;;;;;9.00;8.10;;;17.40;99.90;;;;;;4980541;28;20088;-53
2023/07/01 09:50:03;;;;;;;9.20;7.82;;;17.30;99.90;;;;;;4979228;28;20343;-52
2023/07/01 09:52:33;;;;;;;9.70;8.20;;;17.30;99.90;;;;;;4980128;28;20429;-58
2023/07/01 09:55:03;;;;;;;8.50;7.70;;;17.40;99.90;;;;;;4974769;28;20093;-51
2023/07/01 09:57:30;;;;;;;8.77;7.88;;;17.50;99.90;;;;;;4964025;28;20287;-49
2023/07/01 09:59:56;;;;;;;9.30;7.65;;;17.40;99.90;;;;;;4961182;28;20486;-53
2023/07/01 10:02:27;;;;;;;9.15;7.78;;;17.40;99.90;;;;;;4961105;28;20042;-50
2023/07/01 10:04:53;;;;;;;8.55;7.75;;;17.50;99.90;;;;;;4960976;28;20530;-46
2023/07/01 10:07:19;;;;;;;8.43;7.53;;;17.50;99.90;;;;;;4960001;28;20042;-47
2023/07/01 10:09:51;;;;;;;8.65;7.75;;;17.50;99.90;;;;;;4977533;28;20061;-52
2023/07/01 10:12:18;;;;;;;11.05;8.52;;;17.50;99.90;;;;;;4980755;28;20042;-55
2023/07/01 10:14:51;;;;;;;8.45;7.07;;;17.50;99.90;;;;;;4980126;28;20056;-53
2023/07/01 10:17:17;;;;;;;8.20;7.40;;;17.60;99.90;;;;;;4980924;28;20054;-56
2023/07/01 10:19:46;;;;;;;7.72;6.93;;;17.70;99.90;;;;;;4981929;28;20387;-56
2023/07/01 10:22:29;;;;;;;7.25;6.53;;;17.70;99.90;;;;;;4979114;28;20042;-50
2023/07/01 10:24:55;;;;;;;7.40;6.70;;;17.80;99.90;;;;;;4980491;28;20138;-54
2023/07/01 10:27:40;;;;;;;7.43;6.45;;;17.80;99.90;;;;;;4981155;28;20085;-56
2023/07/01 10:30:09;;;;;;;6.50;5.90;;;17.80;99.90;;;;;;4980771;28;20066;-52
2023/07/01 10:32:35;;;;;;;6.47;5.80;;;17.90;99.90;;;;;;4979514;28;20529;-50
2023/07/01 10:35:03;;;;;;;6.78;6.07;;;17.90;99.90;;;;;;4980160;28;20121;-57
2023/07/01 10:37:33;;;;;;;6.75;6.07;;;17.80;99.90;;;;;;4980761;28;20042;-49
2023/07/01 10:40:23;;;;;;;6.43;5.82;;;17.90;99.90;;;;;;4980717;28;20039;-57
2023/07/01 10:42:48;;;;;;;6.95;6.25;;;18.00;99.90;;;;;;4984265;28;20038;-53
2023/07/01 10:45:14;;;;;;;7.07;6.38;;;18.00;99.90;;;;;;4984483;28;20046;-57
2023/07/01 10:48:03;;;;;;;6.90;6.20;;;18.00;99.90;;;;;;4983554;28;20046;-56
2023/07/01 10:50:29;;;;;;;7.97;6.53;;;18.10;99.90;;;;;;4982912;28;20077;-50
2023/07/01 10:53:03;;;;;;;9.23;6.72;;;18.00;99.90;;;;;;4983641;28;20151;-54
2023/07/01 10:55:43;;;;;;;8.20;6.93;;;18.00;99.90;;;;;;4983895;28;20405;-50
2023/07/01 10:58:23;;;;;;;7.90;7.10;;;18.10;99.90;;;;;;4982354;28;20046;-54
2023/07/01 11:00:53;;;;;;;7.95;7.15;;;18.10;99.90;;;;;;4979207;28;20054;-55
2023/07/01 11:03:34;;;;;;;8.15;7.35;;;18.10;99.90;;;;;;4966777;28;20043;-52
2023/07/01 11:06:08;;;;;;;8.48;7.50;;;18.20;99.90;;;;;;4963048;28;20109;-51
2023/07/01 11:08:42;;;;;;;7.93;7.03;;;18.30;99.90;;;;;;4972768;28;20054;-55
2023/07/01 11:11:08;;;;;;;;;;;18.30;99.90;;;;;;4976142;28;20057;-54
2023/07/01 11:13:35;;;;;;;8.23;7.38;;;18.30;99.90;;;;;;4983322;28;20373;-57
2023/07/01 11:16:10;;;;;;;7.93;7.07;;;18.20;99.90;;;;;;4983230;28;20065;-51
2023/07/01 11:18:51;;;;;;;8.05;6.78;;;18.20;99.90;;;;;;4982737;28;20513;-58
2023/07/01 11:21:22;;;;;;;7.40;6.53;;;18.30;99.90;;;;;;4982338;28;20039;-51
2023/07/01 11:23:51;;;;;;;8.23;7.25;;;18.30;99.90;;;;;;4963808;28;20207;-57
2023/07/01 11:26:29;;;;;;;8.80;7.72;;;18.40;99.90;;;;;;4963120;28;20529;-55
2023/07/01 11:28:54;;;;;;;10.73;9.15;;;18.30;99.90;;;;;;4962896;28;20046;-56
2023/07/01 11:31:25;;;;;;;9.80;8.60;;;18.30;99.90;;;;;;4963910;28;20039;-48
2023/07/01 11:33:52;;;;;;;10.80;8.80;;;18.30;99.90;;;;;;4964210;28;20051;-54
2023/07/01 11:36:40;;;;;;;11.02;9.93;;;18.30;99.90;;;;;;4962944;28;20035;-54
2023/07/01 11:39:08;;;;;;;11.45;9.85;;;18.30;99.90;;;;;;4961450;28;20125;-58
2023/07/01 11:41:35;;;;;;;11.18;9.98;;;18.30;99.90;;;;;;4963962;28;20421;-54
2023/07/01 11:44:01;;;;;;;13.02;10.65;;;18.30;99.90;;;;;;4963411;28;20119;-54
2023/07/01 11:46:35;;;;;;;12.18;10.25;;;18.30;99.90;;;;;;4962800;28;20050;-56
2023/07/01 11:49:24;;;;;;;11.20;9.97;;;18.30;99.90;;;;;;4964499;28;20504;-53
2023/07/01 11:52:04;;;;;;;11.80;10.25;;;18.20;99.90;;;;;;4962035;28;20052;-58
2023/07/01 11:54:37;;;;;;;11.38;9.50;;;18.10;99.90;;;;;;4972808;28;20494;-56
2023/07/01 11:57:13;;;;;;;9.70;8.70;;;18.20;99.90;;;;;;4965751;28;20053;-58
2023/07/01 11:59:39;;;;;;;10.43;9.32;;;18.10;99.90;;;;;;4982563;28;20129;-55
2023/07/01 12:02:05;;;;;;;10.45;9.25;;;18.20;99.90;;;;;;4970529;28;20154;-57
2023/07/01 12:04:33;;;;;;;9.85;8.85;;;18.20;99.90;;;;;;4969334;28;20058;-57
2023/07/01 12:07:15;;;;;;;10.38;8.05;;;18.20;99.90;;;;;;4981409;28;20046;-54
2023/07/01 12:09:43;;;;;;;7.85;7.05;;;18.30;99.90;;;;;;4982278;28;20068;-53
2023/07/01 12:12:18;;;;;;;6.55;5.55;;;18.30;99.90;;;;;;4982091;28;20417;-47
2023/07/01 12:14:45;;;;;;;6.00;4.50;;;18.30;99.90;;;;;;4982156;28;20046;-58
2023/07/01 12:17:30;;;;;;;4.75;3.83;;;18.40;99.90;;;;;;4971357;28;20469;-56
2023/07/01 12:19:59;;;;;;;4.13;3.55;;;18.40;99.90;;;;;;4962404;28;21280;-53
2023/07/01 12:22:26;;;;;;;4.55;3.22;;;18.60;99.90;;;;;;4969226;28;20390;-48
2023/07/01 12:24:56;;;;;;;4.40;3.17;;;18.60;99.90;;;;;;4967956;28;20069;-59
2023/07/01 12:27:22;;;;;;;4.60;3.00;;;18.60;99.90;;;;;;4963366;28;20046;-53
2023/07/01 12:29:48;;;;;;;3.05;2.42;;;18.60;99.90;;;;;;4973475;28;20046;-54
2023/07/01 12:32:13;;;;;;;4.10;2.50;;;18.60;99.90;;;;;;4970838;28;20050;-59
2023/07/01 12:34:39;;;;;;;2.55;2.00;;;18.60;99.90;;;;;;4963057;28;20121;-51
2023/07/01 12:37:07;;;;;;;2.40;1.67;;;18.50;99.90;;;;;;4962357;28;20104;-52
2023/07/01 12:39:33;;;;;;;4.30;1.70;;;18.60;99.90;;;;;;4962867;28;20327;-55
2023/07/01 12:41:59;;;;;;;3.15;1.80;;;18.90;99.90;;;;;;4962496;28;20061;-55
2023/07/01 12:44:25;;;;;;;1.90;1.20;;;19.20;99.90;;;;;;4963420;28;20043;-57
2023/07/01 12:46:51;;;;;;;1.45;1.20;;;19.40;99.90;;;;;;4963195;28;20038;-53
2023/07/01 12:49:17;;;;;;;2.33;1.88;;;19.60;99.90;;;;;;4961830;28;20137;-55